VIV4272 MMMY-MMCL
Flight info
| Callsign | VIV4272 |
|---|---|
| Flight time | N/A |
| Altitude | 36000 |
| Route | MTY1A MTY UJ32 TRC UJ10 AVTAL AVTAL1D |
| Aircraft | A320/M-SDE3FGHIRWY/LB1 |
Departure
| Time | 2026-05-04 18:36 |
|---|---|
| Airport | Monterrey International Airport (MMMY) |
Arrival
| Time | N/A |
|---|---|
| Airport | Bachigualato Federal International Airport (MMCL) |
| Time | Latitude | Longitude | Altitude | Speed | Heading |
|---|---|---|---|---|---|
| 2026-05-04 18:01 | 25.78059 | -100.11856 | 1292 ft | 0 kts | 212° |
| 2026-05-04 18:25 | 25.78065 | -100.11852 | 1292 ft | 2 kts | 208° |
| 2026-05-04 18:26 | 25.78083 | -100.11844 | 1292 ft | 3 kts | 192° |
| 2026-05-04 18:26 | 25.78103 | -100.11841 | 1292 ft | 3 kts | 173° |
| 2026-05-04 18:26 | 25.78122 | -100.11846 | 1292 ft | 3 kts | 154° |
| 2026-05-04 18:26 | 25.78125 | -100.11848 | 1292 ft | 3 kts | 151° |
| 2026-05-04 18:28 | 25.78124 | -100.11848 | 1292 ft | 0 kts | 151° |
| 2026-05-04 18:29 | 25.78122 | -100.11845 | 1292 ft | 1 kts | 135° |
| 2026-05-04 18:29 | 25.78117 | -100.11837 | 1292 ft | 2 kts | 121° |
| 2026-05-04 18:29 | 25.78107 | -100.11818 | 1292 ft | 4 kts | 121° |
| 2026-05-04 18:29 | 25.78087 | -100.11778 | 1292 ft | 9 kts | 118° |
| 2026-05-04 18:30 | 25.78146 | -100.11670 | 1292 ft | 9 kts | 26° |
| 2026-05-04 18:30 | 25.78188 | -100.11706 | 1292 ft | 9 kts | 298° |
| 2026-05-04 18:30 | 25.78227 | -100.11776 | 1292 ft | 12 kts | 303° |
| 2026-05-04 18:31 | 25.78272 | -100.11809 | 1292 ft | 7 kts | 29° |
| 2026-05-04 18:31 | 25.78320 | -100.11775 | 1292 ft | 2 kts | 32° |
| 2026-05-04 18:31 | 25.78321 | -100.11774 | 1292 ft | 0 kts | 32° |
| 2026-05-04 18:34 | 25.78323 | -100.11772 | 1292 ft | 1 kts | 32° |
| 2026-05-04 18:35 | 25.78360 | -100.11747 | 1292 ft | 14 kts | 32° |
| 2026-05-04 18:35 | 25.78387 | -100.11661 | 1292 ft | 16 kts | 118° |
| 2026-05-04 18:35 | 25.78228 | -100.11366 | 1293 ft | 84 kts | 122° |
| 2026-05-04 18:35 | 25.77788 | -100.10572 | 1293 ft | 154 kts | 120° |
| 2026-05-04 18:36 | 25.77189 | -100.09490 | 1810 ft | 167 kts | 122° |
| 2026-05-04 18:36 | 25.76549 | -100.08384 | 2538 ft | 178 kts | 123° |
| 2026-05-04 18:36 | 25.75842 | -100.07157 | 3121 ft | 198 kts | 122° |
| 2026-05-04 18:36 | 25.75103 | -100.05800 | 3800 ft | 213 kts | 120° |
| 2026-05-04 18:37 | 25.74327 | -100.04337 | 4396 ft | 226 kts | 120° |
| 2026-05-04 18:37 | 25.73491 | -100.02774 | 4836 ft | 244 kts | 120° |
| 2026-05-04 18:37 | 25.72596 | -100.01114 | 5399 ft | 258 kts | 120° |
| 2026-05-04 18:37 | 25.71636 | -99.99369 | 5979 ft | 272 kts | 121° |
| 2026-05-04 18:38 | 25.70638 | -99.97565 | 6562 ft | 285 kts | 123° |
| 2026-05-04 18:38 | 25.69758 | -99.95564 | 7245 ft | 294 kts | 105° |
| 2026-05-04 18:38 | 25.69704 | -99.93300 | 8005 ft | 297 kts | 76° |
| 2026-05-04 18:38 | 25.70604 | -99.91258 | 8735 ft | 296 kts | 46° |
| 2026-05-04 18:39 | 25.72246 | -99.89937 | 9439 ft | 291 kts | 17° |
| 2026-05-04 18:39 | 25.74213 | -99.89621 | 10131 ft | 286 kts | 351° |
| 2026-05-04 18:39 | 25.76123 | -99.90201 | 10651 ft | 289 kts | 329° |
| 2026-05-04 18:39 | 25.77696 | -99.91635 | 10903 ft | 302 kts | 304° |
| 2026-05-04 18:40 | 25.78563 | -99.93803 | 11107 ft | 317 kts | 279° |
| 2026-05-04 18:40 | 25.78572 | -99.96271 | 11322 ft | 334 kts | 264° |
| 2026-05-04 18:40 | 25.78264 | -99.98898 | 11568 ft | 349 kts | 262° |
| 2026-05-04 18:40 | 25.77922 | -100.01618 | 11803 ft | 363 kts | 263° |
| 2026-05-04 18:41 | 25.77633 | -100.04449 | 12002 ft | 377 kts | 265° |
| 2026-05-04 18:41 | 25.77423 | -100.07385 | 12423 ft | 382 kts | 266° |
| 2026-05-04 18:41 | 25.77319 | -100.10336 | 12927 ft | 385 kts | 271° |
| 2026-05-04 18:41 | 25.77540 | -100.13310 | 13431 ft | 388 kts | 277° |
| 2026-05-04 18:42 | 25.77994 | -100.16263 | 13917 ft | 391 kts | 280° |
| 2026-05-04 18:42 | 25.78533 | -100.19225 | 14389 ft | 393 kts | 281° |
| 2026-05-04 18:42 | 25.79068 | -100.22214 | 14850 ft | 396 kts | 280° |
| 2026-05-04 18:42 | 25.79556 | -100.25232 | 15304 ft | 398 kts | 279° |
| 2026-05-04 18:43 | 25.79990 | -100.28235 | 15820 ft | 400 kts | 278° |
| 2026-05-04 18:43 | 25.80417 | -100.31296 | 16226 ft | 403 kts | 278° |
| 2026-05-04 18:43 | 25.80856 | -100.34378 | 16627 ft | 406 kts | 278° |
| 2026-05-04 18:43 | 25.81314 | -100.37486 | 17033 ft | 408 kts | 279° |
| 2026-05-04 18:44 | 25.81784 | -100.40598 | 17432 ft | 411 kts | 279° |
| 2026-05-04 18:44 | 25.82100 | -100.42675 | 17696 ft | 412 kts | 279° |
| 2026-05-04 18:44 | 25.82734 | -100.46904 | 18218 ft | 415 kts | 278° |
| 2026-05-04 18:44 | 25.83197 | -100.50074 | 18715 ft | 416 kts | 278° |
| 2026-05-04 18:45 | 25.83663 | -100.53252 | 19076 ft | 419 kts | 278° |
| 2026-05-04 18:45 | 25.84139 | -100.56466 | 19405 ft | 422 kts | 278° |
| 2026-05-04 18:45 | 25.84610 | -100.59653 | 19754 ft | 425 kts | 278° |
| 2026-05-04 18:45 | 25.85088 | -100.62902 | 20103 ft | 427 kts | 278° |
| 2026-05-04 18:46 | 25.85566 | -100.66164 | 20441 ft | 429 kts | 278° |
| 2026-05-04 18:46 | 25.86047 | -100.69439 | 20769 ft | 431 kts | 278° |
| 2026-05-04 18:46 | 25.86531 | -100.72741 | 21092 ft | 434 kts | 278° |
| 2026-05-04 18:46 | 25.87015 | -100.76056 | 21405 ft | 436 kts | 278° |
| 2026-05-04 18:47 | 25.87502 | -100.79390 | 21723 ft | 438 kts | 278° |
| 2026-05-04 18:47 | 25.87990 | -100.82736 | 22036 ft | 440 kts | 278° |
| 2026-05-04 18:47 | 25.88479 | -100.86097 | 22339 ft | 442 kts | 278° |
| 2026-05-04 18:47 | 25.88970 | -100.89479 | 22632 ft | 444 kts | 278° |
| 2026-05-04 18:48 | 25.89461 | -100.92872 | 22916 ft | 446 kts | 278° |
| 2026-05-04 18:48 | 25.89952 | -100.96273 | 23192 ft | 448 kts | 278° |
| 2026-05-04 18:48 | 25.90441 | -100.99658 | 23460 ft | 450 kts | 278° |
| 2026-05-04 18:48 | 25.90936 | -101.03093 | 23725 ft | 451 kts | 278° |
| 2026-05-04 18:49 | 25.91434 | -101.06546 | 23975 ft | 453 kts | 278° |
| 2026-05-04 18:49 | 25.91931 | -101.10010 | 24215 ft | 455 kts | 278° |
| 2026-05-04 18:49 | 25.92430 | -101.13485 | 24441 ft | 456 kts | 278° |
| 2026-05-04 18:49 | 25.92928 | -101.16968 | 24654 ft | 458 kts | 278° |
| 2026-05-04 18:50 | 25.93427 | -101.20472 | 24876 ft | 459 kts | 278° |
| 2026-05-04 18:50 | 25.93927 | -101.23972 | 25158 ft | 458 kts | 278° |
| 2026-05-04 18:50 | 25.94427 | -101.27469 | 25444 ft | 458 kts | 278° |
| 2026-05-04 18:50 | 25.94925 | -101.30958 | 25738 ft | 457 kts | 278° |
| 2026-05-04 18:51 | 25.95421 | -101.34449 | 26038 ft | 457 kts | 278° |
| 2026-05-04 18:51 | 25.95915 | -101.37937 | 26333 ft | 456 kts | 278° |
| 2026-05-04 18:51 | 25.96407 | -101.41414 | 26631 ft | 455 kts | 278° |
| 2026-05-04 18:51 | 25.96898 | -101.44891 | 26918 ft | 455 kts | 278° |
| 2026-05-04 18:52 | 25.97387 | -101.48372 | 27217 ft | 454 kts | 278° |
| 2026-05-04 18:52 | 25.97871 | -101.51836 | 27506 ft | 454 kts | 278° |
| 2026-05-04 18:52 | 25.98355 | -101.55298 | 27802 ft | 453 kts | 278° |
| 2026-05-04 18:52 | 25.98710 | -101.58726 | 28096 ft | 452 kts | 272° |
| 2026-05-04 18:53 | 25.98574 | -101.62215 | 28386 ft | 452 kts | 262° |
| 2026-05-04 18:53 | 25.97922 | -101.65625 | 28688 ft | 452 kts | 256° |
| 2026-05-04 18:53 | 25.97106 | -101.69000 | 28984 ft | 451 kts | 255° |
| 2026-05-04 18:53 | 25.96251 | -101.72358 | 29283 ft | 451 kts | 255° |
| 2026-05-04 18:54 | 25.95420 | -101.75725 | 29590 ft | 450 kts | 256° |
| 2026-05-04 18:54 | 25.94641 | -101.79094 | 29901 ft | 449 kts | 257° |
| 2026-05-04 18:54 | 25.93894 | -101.82465 | 30201 ft | 449 kts | 257° |
| 2026-05-04 18:54 | 25.93148 | -101.85827 | 30497 ft | 448 kts | 256° |
| 2026-05-04 18:55 | 25.92378 | -101.89190 | 30805 ft | 447 kts | 256° |
| 2026-05-04 18:55 | 25.90822 | -101.95824 | 31407 ft | 446 kts | 256° |
| 2026-05-04 18:55 | 25.90035 | -101.99202 | 31693 ft | 445 kts | 256° |
| 2026-05-04 18:56 | 25.89264 | -102.02533 | 31969 ft | 445 kts | 256° |
| 2026-05-04 18:56 | 25.88505 | -102.05814 | 32249 ft | 444 kts | 256° |
| 2026-05-04 18:56 | 25.87734 | -102.09129 | 32544 ft | 444 kts | 256° |
| 2026-05-04 18:56 | 25.86962 | -102.12448 | 32832 ft | 443 kts | 256° |
| 2026-05-04 18:57 | 25.86189 | -102.15762 | 33110 ft | 442 kts | 256° |
| 2026-05-04 18:57 | 25.85416 | -102.19062 | 33390 ft | 442 kts | 256° |
| 2026-05-04 18:57 | 25.84644 | -102.22362 | 33664 ft | 441 kts | 256° |
| 2026-05-04 18:57 | 25.84133 | -102.24548 | 33842 ft | 441 kts | 256° |
| 2026-05-04 18:58 | 25.83364 | -102.27840 | 34105 ft | 440 kts | 256° |
| 2026-05-04 18:58 | 25.82591 | -102.31134 | 34358 ft | 440 kts | 256° |
| 2026-05-04 18:58 | 25.81821 | -102.34417 | 34602 ft | 439 kts | 256° |
| 2026-05-04 18:58 | 25.81050 | -102.37699 | 34840 ft | 439 kts | 256° |
| 2026-05-04 18:59 | 25.80279 | -102.40979 | 35065 ft | 438 kts | 256° |
| 2026-05-04 18:59 | 25.79518 | -102.44211 | 35296 ft | 438 kts | 256° |
| 2026-05-04 18:59 | 25.78743 | -102.47485 | 35521 ft | 438 kts | 256° |
| 2026-05-04 18:59 | 25.77973 | -102.50749 | 35732 ft | 437 kts | 256° |
| 2026-05-04 19:00 | 25.77205 | -102.54008 | 35930 ft | 437 kts | 256° |
| 2026-05-04 19:00 | 25.76434 | -102.57269 | 36010 ft | 436 kts | 256° |
| 2026-05-04 19:00 | 25.74893 | -102.63779 | 36008 ft | 436 kts | 256° |
| 2026-05-04 19:01 | 25.73347 | -102.70295 | 36007 ft | 436 kts | 256° |
| 2026-05-04 19:01 | 25.71800 | -102.76797 | 36007 ft | 436 kts | 256° |
| 2026-05-04 19:02 | 25.70259 | -102.83257 | 36009 ft | 436 kts | 256° |
| 2026-05-04 19:02 | 25.68706 | -102.89750 | 36012 ft | 436 kts | 256° |
| 2026-05-04 19:03 | 25.67150 | -102.96251 | 36020 ft | 436 kts | 256° |
| 2026-05-04 19:03 | 25.65596 | -103.02746 | 36027 ft | 436 kts | 256° |
| 2026-05-04 19:04 | 25.64132 | -103.08823 | 36043 ft | 436 kts | 256° |
| 2026-05-04 19:04 | 25.62571 | -103.15284 | 36044 ft | 436 kts | 256° |
| 2026-05-04 19:05 | 25.61008 | -103.21787 | 36042 ft | 436 kts | 256° |
| 2026-05-04 19:05 | 25.59437 | -103.28279 | 36043 ft | 437 kts | 256° |
| 2026-05-04 19:06 | 25.57860 | -103.34785 | 36040 ft | 437 kts | 256° |
| 2026-05-04 19:06 | 25.56307 | -103.41281 | 36040 ft | 436 kts | 257° |
| 2026-05-04 19:07 | 25.55012 | -103.47847 | 36041 ft | 436 kts | 258° |
| 2026-05-04 19:07 | 25.53752 | -103.54426 | 36041 ft | 436 kts | 258° |
| 2026-05-04 19:08 | 25.52461 | -103.60992 | 36041 ft | 436 kts | 258° |
| 2026-05-04 19:08 | 25.51173 | -103.67563 | 36041 ft | 436 kts | 258° |
| 2026-05-04 19:09 | 25.49898 | -103.74084 | 36042 ft | 436 kts | 258° |
| 2026-05-04 19:09 | 25.48607 | -103.80647 | 36043 ft | 436 kts | 258° |
| 2026-05-04 19:10 | 25.47303 | -103.87224 | 36042 ft | 436 kts | 258° |
| 2026-05-04 19:10 | 25.46009 | -103.93782 | 36042 ft | 436 kts | 258° |
| 2026-05-04 19:11 | 25.44716 | -104.00343 | 36043 ft | 436 kts | 258° |
| 2026-05-04 19:11 | 25.43415 | -104.06905 | 36043 ft | 436 kts | 258° |
| 2026-05-04 19:12 | 25.41466 | -104.16691 | 36042 ft | 436 kts | 258° |
| 2026-05-04 19:13 | 25.40158 | -104.23239 | 36042 ft | 436 kts | 258° |
| 2026-05-04 19:13 | 25.38848 | -104.29792 | 36040 ft | 436 kts | 258° |
| 2026-05-04 19:14 | 25.37533 | -104.36338 | 36042 ft | 436 kts | 258° |
| 2026-05-04 19:14 | 25.36219 | -104.42892 | 36043 ft | 436 kts | 258° |
| 2026-05-04 19:15 | 25.34910 | -104.49398 | 36044 ft | 436 kts | 258° |
| 2026-05-04 19:15 | 25.33588 | -104.55935 | 36042 ft | 436 kts | 258° |
| 2026-05-04 19:16 | 25.32261 | -104.62473 | 36039 ft | 436 kts | 258° |
| 2026-05-04 19:16 | 25.30936 | -104.69016 | 36032 ft | 436 kts | 258° |
| 2026-05-04 19:17 | 25.29606 | -104.75557 | 36033 ft | 436 kts | 258° |
| 2026-05-04 19:17 | 25.28283 | -104.82049 | 36031 ft | 436 kts | 258° |
| 2026-05-04 19:18 | 25.26951 | -104.88576 | 36034 ft | 436 kts | 258° |
| 2026-05-04 19:18 | 25.25612 | -104.95110 | 36041 ft | 436 kts | 258° |
| 2026-05-04 19:19 | 25.24263 | -105.01638 | 36044 ft | 436 kts | 258° |
| 2026-05-04 19:19 | 25.22922 | -105.08161 | 36043 ft | 436 kts | 258° |
| 2026-05-04 19:20 | 25.21573 | -105.14688 | 36041 ft | 435 kts | 258° |
| 2026-05-04 19:20 | 25.20221 | -105.21206 | 36028 ft | 435 kts | 258° |
| 2026-05-04 19:21 | 25.18868 | -105.27720 | 36004 ft | 435 kts | 258° |
| 2026-05-04 19:21 | 25.17515 | -105.34226 | 35960 ft | 434 kts | 257° |
| 2026-05-04 19:21 | 25.16839 | -105.37464 | 35625 ft | 430 kts | 257° |
| 2026-05-04 19:22 | 25.16168 | -105.40673 | 34926 ft | 431 kts | 257° |
| 2026-05-04 19:22 | 25.15491 | -105.43923 | 33975 ft | 437 kts | 257° |
| 2026-05-04 19:22 | 25.14815 | -105.47152 | 33201 ft | 439 kts | 257° |
| 2026-05-04 19:22 | 25.14123 | -105.50447 | 32405 ft | 440 kts | 257° |
| 2026-05-04 19:23 | 25.13431 | -105.53741 | 31575 ft | 442 kts | 257° |
| 2026-05-04 19:23 | 25.12737 | -105.57051 | 30721 ft | 444 kts | 257° |
| 2026-05-04 19:23 | 25.12038 | -105.60375 | 29838 ft | 445 kts | 257° |
| 2026-05-04 19:23 | 25.11337 | -105.63710 | 28953 ft | 447 kts | 257° |
| 2026-05-04 19:24 | 25.10635 | -105.67044 | 28339 ft | 446 kts | 257° |
| 2026-05-04 19:24 | 25.09930 | -105.70384 | 28077 ft | 448 kts | 257° |
| 2026-05-04 19:24 | 25.09220 | -105.73736 | 28024 ft | 450 kts | 257° |